Time;durP1;ratioP1;P1;durP2;ratioP2;P2;SDS_P1;SDS_P2;PMS_P1;PMS_P2;Temp;Humidity;BMP_temperature;BMP_pressure;BME280_temperature;BME280_humidity;BME280_pressure;Samples;Min_cycle;Max_cycle;Signal;HPM_P1;HPM_P2
2022/03/15 00:02:04;;;;;;;2.28;1.00;;;4.00;99.90;;;;;;10383132;28;20168;-61
2022/03/15 00:07:10;;;;;;;3.25;1.20;;;4.00;99.90;;;;;;10386129;28;20051;-60
2022/03/15 00:12:13;;;;;;;3.17;1.25;;;4.00;99.90;;;;;;10386903;28;20081;-61
2022/03/15 00:17:15;;;;;;;3.03;1.02;;;4.00;99.90;;;;;;10379267;28;20108;-61
2022/03/15 00:22:17;;;;;;;2.65;1.13;;;4.00;99.90;;;;;;10378397;28;20512;-61
2022/03/15 00:27:20;;;;;;;3.28;1.00;;;3.90;99.90;;;;;;10384149;28;20118;-60
2022/03/15 00:32:23;;;;;;;4.20;1.15;;;3.90;99.90;;;;;;10376434;28;20128;-60
2022/03/15 00:37:25;;;;;;;3.47;1.10;;;3.90;99.90;;;;;;10385762;28;20108;-62
2022/03/15 00:42:27;;;;;;;2.10;0.88;;;3.90;99.90;;;;;;10377492;28;20488;-59
2022/03/15 00:47:29;;;;;;;6.55;1.20;;;3.90;99.90;;;;;;10384054;28;20045;-59
2022/03/15 00:52:31;;;;;;;2.03;1.20;;;3.90;99.90;;;;;;10382686;28;20052;-59
2022/03/15 00:57:33;;;;;;;3.50;0.90;;;4.00;99.90;;;;;;10381608;28;20073;-60
2022/03/15 01:02:35;;;;;;;2.42;0.88;;;4.00;99.90;;;;;;10374146;28;20415;-60
2022/03/15 01:07:37;;;;;;;4.28;1.20;;;3.90;99.90;;;;;;10385317;28;20499;-60
2022/03/15 01:12:39;;;;;;;4.18;1.40;;;3.90;99.90;;;;;;10382142;28;20050;-60
2022/03/15 01:17:41;;;;;;;3.38;1.67;;;3.90;99.90;;;;;;10373989;28;20061;-60
2022/03/15 01:22:43;;;;;;;2.17;1.35;;;3.90;99.90;;;;;;10383006;28;20041;-60
2022/03/15 01:27:44;;;;;;;3.22;1.33;;;4.00;99.90;;;;;;10377481;28;20046;-60
2022/03/15 01:32:46;;;;;;;6.72;1.58;;;3.90;99.90;;;;;;10381581;28;20384;-60
2022/03/15 01:37:48;;;;;;;3.88;1.40;;;4.00;99.90;;;;;;10385343;28;20152;-60
2022/03/15 01:42:49;;;;;;;3.88;1.48;;;4.00;99.90;;;;;;10377824;28;20056;-61
2022/03/15 01:47:51;;;;;;;3.78;1.58;;;4.00;99.90;;;;;;10382909;28;20566;-60
2022/03/15 01:52:53;;;;;;;3.25;1.20;;;3.90;99.90;;;;;;10378560;28;20132;-60
2022/03/15 01:57:55;;;;;;;4.00;1.55;;;3.90;99.90;;;;;;10382811;28;20699;-61
2022/03/15 02:02:56;;;;;;;4.45;1.88;;;3.90;99.90;;;;;;10381934;28;20503;-60
2022/03/15 02:08:10;;;;;;;6.80;1.95;;;3.90;99.90;;;;;;10377125;28;20061;-60
2022/03/15 02:13:12;;;;;;;2.65;1.40;;;3.90;99.90;;;;;;10376894;28;20068;-60
2022/03/15 02:18:13;;;;;;;2.67;1.60;;;3.90;99.90;;;;;;10381392;28;20056;-60
2022/03/15 02:23:16;;;;;;;5.80;1.60;;;3.90;99.90;;;;;;10380093;28;20092;-60
2022/03/15 02:28:18;;;;;;;11.68;6.10;;;3.90;99.90;;;;;;10383403;28;20115;-60
2022/03/15 02:33:20;;;;;;;7.18;3.20;;;4.00;99.90;;;;;;10375869;28;20053;-61
2022/03/15 02:38:22;;;;;;;3.15;1.63;;;3.90;99.90;;;;;;10385078;28;20048;-60
2022/03/15 02:43:23;;;;;;;5.22;1.75;;;3.90;99.90;;;;;;10389205;28;20049;-60
2022/03/15 02:48:25;;;;;;;3.90;2.03;;;3.90;99.90;;;;;;10384262;28;20045;-60
2022/03/15 02:53:28;;;;;;;8.90;1.60;;;3.90;99.90;;;;;;10388540;28;20377;-60
2022/03/15 02:58:30;;;;;;;7.13;2.45;;;3.90;99.90;;;;;;10387523;28;20037;-59
2022/03/15 03:03:32;;;;;;;3.13;1.42;;;4.00;99.90;;;;;;10381766;28;20077;-60
2022/03/15 03:08:34;;;;;;;4.63;1.55;;;4.00;99.90;;;;;;10385678;28;20115;-60
2022/03/15 03:13:37;;;;;;;3.05;1.60;;;4.00;99.90;;;;;;10385392;28;20038;-60
2022/03/15 03:18:39;;;;;;;2.40;1.20;;;4.00;99.90;;;;;;10387333;28;20076;-60
2022/03/15 03:23:41;;;;;;;4.90;1.52;;;4.00;99.90;;;;;;10387614;28;20049;-60
2022/03/15 03:28:43;;;;;;;3.03;1.40;;;4.00;99.90;;;;;;10385366;28;20119;-60
2022/03/15 03:33:45;;;;;;;4.20;1.83;;;4.00;99.90;;;;;;10387138;28;20049;-60
2022/03/15 03:38:47;;;;;;;9.32;2.50;;;4.00;99.90;;;;;;10381499;28;20072;-60
2022/03/15 03:43:50;;;;;;;4.30;2.10;;;4.00;99.90;;;;;;10384679;28;20037;-60
2022/03/15 03:48:52;;;;;;;7.95;2.83;;;4.00;99.90;;;;;;10384652;28;20038;-60
2022/03/15 03:53:53;;;;;;;5.60;2.92;;;4.00;99.90;;;;;;10376759;28;20045;-60
2022/03/15 03:58:55;;;;;;;7.13;2.83;;;4.00;99.90;;;;;;10384083;28;20069;-60
2022/03/15 04:04:03;;;;;;;9.48;2.97;;;4.00;99.90;;;;;;10374544;28;20065;-59
2022/03/15 04:09:04;;;;;;;;;;;4.00;99.90;;;;;;10380146;28;20040;-59
2022/03/15 04:14:11;;;;;;;6.18;2.58;;;4.00;99.90;;;;;;10386437;28;19925;-60
2022/03/15 04:19:12;;;;;;;6.05;3.08;;;4.10;99.90;;;;;;10380727;28;20037;-59
2022/03/15 04:24:17;;;;;;;5.90;2.65;;;4.00;99.90;;;;;;10385096;28;20077;-59
2022/03/15 04:29:20;;;;;;;6.78;3.15;;;4.10;99.90;;;;;;10384787;28;20061;-60
2022/03/15 04:34:22;;;;;;;6.75;2.95;;;4.10;99.90;;;;;;10383594;28;20134;-60
2022/03/15 04:39:24;;;;;;;6.43;2.90;;;4.10;99.90;;;;;;10379781;28;20041;-60
2022/03/15 04:44:26;;;;;;;8.45;2.78;;;4.10;99.90;;;;;;10384073;28;20073;-60
2022/03/15 04:49:27;;;;;;;6.60;3.33;;;4.10;99.90;;;;;;10378189;28;20065;-60
2022/03/15 04:54:30;;;;;;;8.77;3.22;;;4.10;99.90;;;;;;10379319;28;20041;-60
2022/03/15 04:59:32;;;;;;;8.40;3.33;;;4.20;99.90;;;;;;10373976;28;20465;-59
2022/03/15 05:04:34;;;;;;;9.63;3.10;;;4.20;99.90;;;;;;10379871;28;20073;-60
2022/03/15 05:11:06;;;;;;;10.38;3.92;;;4.20;99.90;;;;;;10381880;28;20038;-62
2022/03/15 05:14:57;;;;;;;9.02;4.18;;;4.20;99.90;;;;;;10380805;28;20037;-62
2022/03/15 05:19:59;;;;;;;7.28;2.95;;;4.20;99.90;;;;;;10375768;28;20085;-62
2022/03/15 05:25:01;;;;;;;6.95;3.35;;;4.20;99.90;;;;;;10380757;28;20124;-62
2022/03/15 05:30:04;;;;;;;7.95;3.05;;;4.20;99.90;;;;;;10379250;28;20077;-59
2022/03/15 05:35:06;;;;;;;7.10;3.10;;;4.30;99.90;;;;;;10379069;28;20549;-60
2022/03/15 05:40:09;;;;;;;12.45;3.20;;;4.20;99.90;;;;;;10377109;28;20042;-62
2022/03/15 05:45:11;;;;;;;7.25;3.38;;;4.20;99.90;;;;;;10383435;28;20110;-62
2022/03/15 05:50:12;;;;;;;4.85;2.92;;;4.20;99.90;;;;;;10370610;28;20054;-62
2022/03/15 05:55:14;;;;;;;6.78;3.05;;;4.20;99.90;;;;;;10381500;28;20461;-62
2022/03/15 06:00:17;;;;;;;5.38;2.90;;;4.30;99.90;;;;;;10372974;28;20065;-62
2022/03/15 06:05:19;;;;;;;6.97;3.13;;;4.40;99.90;;;;;;10374629;28;20053;-62
2022/03/15 06:10:23;;;;;;;5.55;2.78;;;4.40;99.90;;;;;;10379674;28;20081;-62
2022/03/15 06:15:24;;;;;;;7.07;2.72;;;4.50;99.90;;;;;;10388935;28;20091;-62
2022/03/15 06:20:27;;;;;;;7.40;2.55;;;4.20;99.90;;;;;;10386215;28;20053;-62
2022/03/15 06:25:30;;;;;;;5.60;2.60;;;4.60;99.90;;;;;;10385604;28;20053;-62
2022/03/15 06:30:32;;;;;;;6.80;2.00;;;4.60;99.90;;;;;;10385081;28;20089;-62
2022/03/15 06:35:33;;;;;;;3.28;2.22;;;4.70;99.90;;;;;;10384091;28;20136;-65
2022/03/15 06:40:35;;;;;;;7.28;2.13;;;4.80;99.90;;;;;;10385661;28;20073;-60
2022/03/15 06:45:37;;;;;;;5.03;1.77;;;4.80;99.90;;;;;;10376016;28;20099;-60
2022/03/15 06:50:42;;;;;;;5.68;2.90;;;4.80;99.90;;;;;;10379654;28;20060;-61
2022/03/15 06:55:44;;;;;;;6.65;2.45;;;4.90;99.90;;;;;;10384990;28;20046;-60
2022/03/15 07:00:47;;;;;;;5.63;2.38;;;4.80;99.90;;;;;;10380769;28;20092;-60
2022/03/15 07:05:49;;;;;;;3.38;2.25;;;4.90;99.90;;;;;;10384430;28;20049;-61
2022/03/15 07:10:53;;;;;;;4.35;2.17;;;5.00;99.90;;;;;;10380914;28;20128;-60
2022/03/15 07:15:54;;;;;;;6.45;2.83;;;5.10;99.90;;;;;;10385037;28;20060;-60
2022/03/15 07:20:56;;;;;;;7.38;2.38;;;5.10;99.90;;;;;;10384286;28;20172;-60
2022/03/15 07:25:57;;;;;;;3.35;2.35;;;5.30;99.90;;;;;;10382316;28;20065;-60
2022/03/15 07:30:59;;;;;;;5.15;2.70;;;5.40;99.90;;;;;;10383370;28;20678;-61
2022/03/15 07:36:01;;;;;;;4.25;2.60;;;5.60;99.90;;;;;;10386926;28;20061;-60
2022/03/15 07:41:03;;;;;;;4.72;2.28;;;5.70;99.90;;;;;;10383614;28;20053;-60
2022/03/15 07:46:05;;;;;;;4.80;2.25;;;5.90;99.90;;;;;;10384943;28;20135;-60
2022/03/15 07:51:06;;;;;;;3.45;1.92;;;6.10;99.90;;;;;;10378701;28;20103;-61
2022/03/15 07:56:08;;;;;;;6.25;2.75;;;6.30;99.90;;;;;;10382791;28;20049;-60
2022/03/15 08:01:10;;;;;;;9.73;2.88;;;6.40;99.90;;;;;;10383594;28;20081;-61
2022/03/15 08:06:12;;;;;;;8.85;2.58;;;6.60;99.90;;;;;;10375704;28;20146;-61
2022/03/15 08:11:13;;;;;;;5.15;2.15;;;6.80;99.90;;;;;;10382801;28;20072;-62
2022/03/15 08:16:15;;;;;;;6.45;2.25;;;6.90;99.90;;;;;;10377476;28;20054;-60
2022/03/15 08:21:17;;;;;;;7.13;2.22;;;7.00;99.90;;;;;;10385210;28;20053;-60
2022/03/15 08:26:19;;;;;;;3.55;2.10;;;7.20;99.90;;;;;;10382831;28;20085;-60
2022/03/15 08:31:21;;;;;;;6.45;2.80;;;7.30;99.90;;;;;;10378769;28;20054;-60
2022/03/15 08:36:23;;;;;;;5.30;3.22;;;7.40;99.90;;;;;;10385793;28;20052;-60
2022/03/15 08:41:25;;;;;;;5.63;2.42;;;7.50;99.90;;;;;;10383822;28;20110;-61
2022/03/15 08:46:26;;;;;;;3.33;1.77;;;7.70;99.90;;;;;;10375466;28;20115;-64
2022/03/15 08:51:28;;;;;;;3.25;2.28;;;7.90;99.90;;;;;;10381876;28;20069;-61
2022/03/15 08:56:31;;;;;;;3.88;1.77;;;8.00;99.90;;;;;;10386373;28;20049;-61
2022/03/15 09:01:33;;;;;;;10.93;2.47;;;8.00;99.90;;;;;;10381553;28;20107;-61
2022/03/15 09:06:36;;;;;;;6.78;2.28;;;8.10;99.90;;;;;;10383941;28;20464;-61
2022/03/15 09:11:39;;;;;;;4.60;2.25;;;8.20;99.90;;;;;;10381799;28;20049;-61
2022/03/15 09:16:41;;;;;;;3.58;1.80;;;8.40;99.90;;;;;;10381816;28;20064;-61
2022/03/15 09:21:43;;;;;;;6.68;2.13;;;8.50;99.90;;;;;;10376457;28;20486;-61
2022/03/15 09:26:45;;;;;;;5.80;1.88;;;8.60;97.30;;;;;;10376189;28;20053;-61
2022/03/15 09:31:47;;;;;;;6.30;1.77;;;8.70;97.10;;;;;;10382836;28;20053;-61
2022/03/15 09:36:53;;;;;;;4.70;2.28;;;8.80;94.30;;;;;;10372120;28;20107;-61
2022/03/15 09:41:58;;;;;;;5.40;2.35;;;8.80;92.90;;;;;;10377749;28;20485;-61
2022/03/15 09:47:02;;;;;;;7.13;2.55;;;8.90;92.10;;;;;;10382405;28;20065;-61
2022/03/15 09:52:07;;;;;;;5.30;1.80;;;9.00;91.20;;;;;;10389702;28;20354;-61
2022/03/15 09:57:09;;;;;;;2.95;1.25;;;9.10;89.30;;;;;;10391680;28;20431;-61
2022/03/15 10:02:13;;;;;;;2.95;1.55;;;9.10;90.10;;;;;;10385611;28;20081;-62
2022/03/15 10:07:14;;;;;;;5.13;1.50;;;9.10;91.20;;;;;;10382479;28;20174;-61
2022/03/15 10:12:17;;;;;;;3.30;1.63;;;9.20;90.80;;;;;;10394889;28;20053;-61
2022/03/15 10:17:20;;;;;;;8.63;1.95;;;9.20;90.90;;;;;;10386578;28;20057;-61
2022/03/15 10:22:24;;;;;;;5.05;1.77;;;9.20;89.80;;;;;;10375707;28;20061;-61
2022/03/15 10:27:26;;;;;;;4.63;1.45;;;9.20;91.20;;;;;;10389481;28;20506;-61
2022/03/15 10:32:28;;;;;;;4.93;1.52;;;9.10;90.10;;;;;;10390460;28;20150;-61
2022/03/15 10:37:33;;;;;;;5.07;1.65;;;9.10;90.90;;;;;;10378895;28;20073;-62
2022/03/15 10:42:41;;;;;;;5.80;2.03;;;9.00;92.70;;;;;;10371188;28;20065;-61
2022/03/15 10:47:53;;;;;;;7.18;2.78;;;9.00;94.40;;;;;;10386531;28;20069;-61
2022/03/15 10:52:55;;;;;;;4.63;2.47;;;9.00;99.90;;;;;;10387212;28;20053;-61
2022/03/15 10:58:03;;;;;;;8.82;2.58;;;8.90;99.90;;;;;;10387223;28;20054;-62
2022/03/15 11:03:10;;;;;;;8.85;3.33;;;8.90;99.90;;;;;;10386500;28;20488;-62
2022/03/15 11:08:15;;;;;;;5.97;2.70;;;8.80;99.90;;;;;;10371350;28;20041;-63
2022/03/15 11:13:17;;;;;;;4.93;2.30;;;8.70;99.90;;;;;;10374627;28;20139;-63
2022/03/15 11:18:19;;;;;;;8.52;2.45;;;8.60;99.90;;;;;;10381924;28;20510;-64
2022/03/15 11:23:23;;;;;;;13.65;5.72;;;8.50;99.90;;;;;;10385473;28;20123;-63
2022/03/15 11:28:28;;;;;;;9.95;5.13;;;8.30;99.90;;;;;;10385422;28;20455;-64
2022/03/15 11:33:31;;;;;;;13.60;6.45;;;8.30;99.90;;;;;;10384775;28;20087;-63
2022/03/15 11:38:34;;;;;;;11.18;5.03;;;8.30;99.90;;;;;;10379933;28;20049;-64
2022/03/15 11:44:00;;;;;;;11.85;4.22;;;8.20;99.90;;;;;;10384882;28;20095;-64
2022/03/15 11:49:18;;;;;;;9.27;4.00;;;8.10;99.90;;;;;;10383247;28;20064;-66
2022/03/15 11:54:50;;;;;;;30.27;7.72;;;8.10;99.90;;;;;;10387680;28;20076;-64
2022/03/15 11:59:55;;;;;;;12.00;4.65;;;8.00;99.90;;;;;;10383818;28;20119;-64
2022/03/15 12:04:57;;;;;;;14.30;4.20;;;8.10;99.90;;;;;;10386039;28;20057;-64
2022/03/15 12:09:59;;;;;;;10.23;4.03;;;8.00;99.90;;;;;;10386512;28;20084;-64
2022/03/15 12:15:12;;;;;;;4.82;2.60;;;8.00;99.90;;;;;;10386863;28;20099;-64
2022/03/15 12:20:16;;;;;;;5.88;2.50;;;8.00;99.90;;;;;;10379745;28;20558;-64
2022/03/15 12:25:18;;;;;;;15.55;3.08;;;8.00;99.90;;;;;;10379933;28;20072;-64
2022/03/15 12:30:30;;;;;;;8.18;2.80;;;7.90;99.90;;;;;;10379481;28;20128;-63
2022/03/15 12:35:33;;;;;;;5.70;2.30;;;7.90;99.90;;;;;;10377405;28;20457;-67
2022/03/15 12:40:42;;;;;;;3.88;2.28;;;7.90;99.90;;;;;;10379908;28;20042;-63
2022/03/15 12:45:47;;;;;;;5.10;1.63;;;7.80;99.90;;;;;;10383535;28;20038;-63
2022/03/15 12:50:49;;;;;;;3.65;2.35;;;7.80;99.90;;;;;;10381928;28;20049;-61
2022/03/15 12:55:57;;;;;;;6.95;1.92;;;7.80;99.90;;;;;;10381823;28;20049;-63
2022/03/15 13:00:58;;;;;;;7.57;2.50;;;7.70;99.90;;;;;;10376794;28;20053;-63
2022/03/15 13:06:00;;;;;;;10.43;1.95;;;7.60;99.90;;;;;;10381830;28;20052;-63
2022/03/15 13:11:05;;;;;;;5.25;1.80;;;7.50;99.90;;;;;;10377277;28;20056;-67
2022/03/15 13:16:09;;;;;;;4.38;1.77;;;7.40;99.90;;;;;;10370073;28;20095;-66
2022/03/15 13:21:12;;;;;;;10.10;2.65;;;7.30;99.90;;;;;;10368825;28;20082;-67
2022/03/15 13:26:24;;;;;;;9.73;3.08;;;7.30;99.90;;;;;;10384866;28;20046;-66
2022/03/15 13:31:26;;;;;;;15.50;3.28;;;7.30;99.90;;;;;;10384062;28;22062;-67
2022/03/15 13:36:33;;;;;;;13.38;3.65;;;7.20;99.90;;;;;;10385731;28;20052;-67
2022/03/15 13:41:48;;;;;;;14.15;3.63;;;7.20;99.90;;;;;;10380980;28;20446;-66
2022/03/15 13:47:03;;;;;;;13.05;3.80;;;7.10;99.90;;;;;;10386699;28;20046;-66
2022/03/15 13:52:07;;;;;;;7.68;2.88;;;7.10;99.90;;;;;;10387521;28;20128;-66
2022/03/15 13:57:10;;;;;;;5.20;2.35;;;7.10;99.90;;;;;;10381977;28;20049;-66
2022/03/15 14:02:18;;;;;;;6.78;2.33;;;7.10;99.90;;;;;;10374939;28;20076;-66
2022/03/15 14:07:22;;;;;;;7.47;2.03;;;7.20;99.90;;;;;;10378562;28;20473;-66
2022/03/15 14:12:29;;;;;;;9.98;2.95;;;7.20;99.90;;;;;;10381537;28;20054;-65
2022/03/15 14:17:49;;;;;;;7.65;2.70;;;7.20;99.90;;;;;;10371165;28;20054;-67
2022/03/15 14:22:53;;;;;;;8.50;3.83;;;7.20;99.90;;;;;;10381236;28;20132;-66
2022/03/15 14:27:58;;;;;;;10.43;2.88;;;7.30;99.90;;;;;;10369226;28;20096;-66
2022/03/15 14:33:02;;;;;;;11.25;3.15;;;7.30;99.90;;;;;;10383028;28;20053;-66
2022/03/15 14:38:15;;;;;;;13.85;3.05;;;7.30;99.90;;;;;;10383807;28;20099;-66
2022/03/15 14:43:22;;;;;;;9.05;3.50;;;7.30;99.90;;;;;;10385978;28;20042;-67
2022/03/15 14:48:29;;;;;;;5.35;3.47;;;7.30;99.90;;;;;;10388471;28;20341;-67
2022/03/15 14:53:34;;;;;;;8.45;3.15;;;7.30;99.90;;;;;;10386342;28;20476;-66
2022/03/15 14:58:36;;;;;;;5.80;3.42;;;7.20;99.90;;;;;;10382265;28;20073;-66
2022/03/15 15:03:38;;;;;;;9.75;2.70;;;7.20;99.90;;;;;;10386658;28;20111;-66
2022/03/15 15:08:40;;;;;;;7.60;2.58;;;7.20;99.90;;;;;;10390147;28;20050;-67
2022/03/15 15:13:42;;;;;;;7.63;2.47;;;7.20;99.90;;;;;;10383524;28;20068;-66
2022/03/15 15:18:48;;;;;;;8.30;3.28;;;7.20;99.90;;;;;;10386026;28;20145;-67
2022/03/15 15:23:52;;;;;;;7.85;3.22;;;7.10;99.90;;;;;;10387339;28;20041;-66
2022/03/15 15:28:55;;;;;;;8.70;3.72;;;7.10;99.90;;;;;;10373923;28;20127;-67
2022/03/15 15:33:56;;;;;;;6.30;2.92;;;7.20;99.90;;;;;;10381790;28;20492;-66
2022/03/15 15:39:03;;;;;;;10.35;3.55;;;7.10;99.90;;;;;;10382702;28;20046;-68
2022/03/15 15:44:05;;;;;;;6.25;2.90;;;7.10;99.90;;;;;;10378566;28;20057;-67
2022/03/15 15:49:08;;;;;;;9.10;3.13;;;7.00;99.90;;;;;;10387153;28;21004;-67
2022/03/15 15:54:10;;;;;;;9.57;2.95;;;7.00;99.90;;;;;;10387287;28;20139;-67
2022/03/15 15:59:11;;;;;;;9.23;3.08;;;7.00;99.90;;;;;;10378869;28;20056;-68
2022/03/15 16:04:18;;;;;;;6.35;3.22;;;7.10;99.90;;;;;;10381607;28;20111;-68
2022/03/15 16:09:21;;;;;;;7.75;2.72;;;7.10;99.90;;;;;;10380992;28;20399;-67
2022/03/15 16:14:23;;;;;;;10.35;3.00;;;7.20;99.90;;;;;;10395213;28;20056;-68
2022/03/15 16:19:48;;;;;;;4.70;2.80;;;7.20;99.90;;;;;;10379636;28;20061;-67
2022/03/15 16:24:50;;;;;;;9.70;4.07;;;7.20;99.90;;;;;;10377196;28;20088;-67
2022/03/15 16:29:52;;;;;;;12.40;2.97;;;7.20;99.90;;;;;;10364855;28;20060;-67
2022/03/15 16:34:55;;;;;;;9.43;3.05;;;7.30;99.90;;;;;;10375208;28;20042;-66
2022/03/15 16:39:57;;;;;;;6.43;2.95;;;7.20;99.90;;;;;;10373559;28;20077;-67
2022/03/15 16:44:59;;;;;;;7.88;2.55;;;7.20;99.90;;;;;;10380361;28;20219;-67
2022/03/15 16:50:01;;;;;;;9.85;3.47;;;7.20;99.90;;;;;;10378767;28;20142;-67
2022/03/15 16:55:05;;;;;;;11.23;3.50;;;7.30;99.90;;;;;;10379534;28;20049;-67
2022/03/15 17:00:07;;;;;;;8.40;3.17;;;7.30;99.90;;;;;;10373736;28;20468;-67
2022/03/15 17:10:30;;;;;;;10.40;3.58;;;7.30;99.90;;;;;;10379827;28;20042;-66
2022/03/15 17:15:32;;;;;;;7.50;3.38;;;7.30;99.90;;;;;;10380409;28;20819;-66
2022/03/15 17:20:34;;;;;;;9.48;4.05;;;7.30;99.90;;;;;;10376043;28;20123;-66
2022/03/15 17:25:36;;;;;;;10.73;4.72;;;7.20;99.90;;;;;;10371638;28;20115;-65
2022/03/15 17:30:38;;;;;;;10.13;4.03;;;7.20;99.90;;;;;;10378829;28;20511;-66
2022/03/15 17:35:39;;;;;;;13.20;4.93;;;7.20;99.90;;;;;;10377648;28;20052;-64
2022/03/15 17:40:41;;;;;;;10.77;4.40;;;7.20;99.90;;;;;;10371168;28;20401;-70
2022/03/15 17:45:44;;;;;;;8.48;4.25;;;7.20;99.90;;;;;;10384912;28;20095;-66
2022/03/15 17:50:49;;;;;;;10.15;3.88;;;7.10;99.90;;;;;;10371730;28;20057;-65
2022/03/15 17:55:53;;;;;;;8.57;4.25;;;7.10;99.90;;;;;;10375227;28;20110;-64
2022/03/15 18:00:55;;;;;;;8.10;4.05;;;7.10;99.90;;;;;;10375952;28;20081;-64
2022/03/15 18:05:59;;;;;;;11.15;4.72;;;7.00;99.90;;;;;;10382225;28;20053;-62
2022/03/15 18:11:01;;;;;;;9.85;4.22;;;7.00;99.90;;;;;;10388278;28;20057;-63
2022/03/15 18:16:04;;;;;;;10.63;4.82;;;7.00;99.90;;;;;;10390566;28;20091;-62
2022/03/15 18:21:06;;;;;;;9.20;5.00;;;7.00;99.90;;;;;;10388437;28;20116;-62
2022/03/15 18:26:11;;;;;;;12.10;4.90;;;7.00;99.90;;;;;;10386184;28;20135;-63
2022/03/15 18:31:13;;;;;;;13.82;4.78;;;7.00;99.90;;;;;;10382515;28;20503;-62
2022/03/15 18:36:15;;;;;;;13.25;5.43;;;7.00;99.90;;;;;;10375786;28;20050;-62
2022/03/15 18:41:17;;;;;;;9.27;4.65;;;7.00;99.90;;;;;;10379381;28;20492;-62
2022/03/15 18:46:20;;;;;;;13.27;4.85;;;7.00;99.90;;;;;;10386496;28;20045;-61
2022/03/15 18:51:22;;;;;;;7.70;3.42;;;6.90;99.90;;;;;;10387124;28;20551;-61
2022/03/15 18:56:24;;;;;;;8.65;3.83;;;6.90;99.90;;;;;;10381298;28;20073;-61
2022/03/15 19:01:27;;;;;;;8.25;3.80;;;6.90;99.90;;;;;;10384173;28;20053;-61
2022/03/15 19:06:37;;;;;;;10.40;3.83;;;6.90;99.90;;;;;;10382553;28;20053;-61
2022/03/15 19:11:42;;;;;;;6.97;3.80;;;6.90;99.90;;;;;;10385277;28;20499;-60
2022/03/15 19:16:45;;;;;;;8.52;3.83;;;6.90;99.90;;;;;;10382340;28;20099;-60
2022/03/15 19:21:49;;;;;;;8.75;3.63;;;6.90;99.90;;;;;;10372742;28;20058;-60
2022/03/15 19:26:51;;;;;;;6.55;2.80;;;6.90;99.90;;;;;;10387403;28;20126;-61
2022/03/15 19:31:54;;;;;;;6.90;3.33;;;6.90;99.90;;;;;;10388278;28;20480;-60
2022/03/15 19:36:56;;;;;;;7.38;3.22;;;6.90;99.90;;;;;;10385738;28;20400;-61
2022/03/15 19:41:58;;;;;;;10.57;4.45;;;6.90;99.90;;;;;;10383292;28;20132;-60
2022/03/15 19:47:02;;;;;;;6.75;3.58;;;6.80;99.90;;;;;;10385588;28;20054;-61
2022/03/15 19:52:05;;;;;;;7.97;3.47;;;6.80;99.90;;;;;;10385711;28;20483;-61
2022/03/15 19:57:09;;;;;;;12.02;3.90;;;6.70;99.90;;;;;;10387310;28;20038;-60
2022/03/15 20:02:12;;;;;;;10.90;5.35;;;6.60;99.90;;;;;;10384526;28;20073;-60
2022/03/15 20:07:18;;;;;;;15.35;6.50;;;6.60;99.90;;;;;;10384217;28;20049;-61
2022/03/15 20:12:31;;;;;;;11.73;5.45;;;6.50;99.90;;;;;;10385182;28;20321;-61
2022/03/15 20:17:34;;;;;;;12.68;5.05;;;6.40;99.90;;;;;;10378673;28;20049;-60
2022/03/15 20:22:41;;;;;;;11.90;5.60;;;6.30;99.90;;;;;;10376669;28;20392;-61
2022/03/15 20:27:44;;;;;;;9.53;5.10;;;6.30;99.90;;;;;;10380829;28;20042;-60
2022/03/15 20:32:45;;;;;;;11.32;4.20;;;6.20;99.90;;;;;;10381917;28;20056;-60
2022/03/15 20:37:47;;;;;;;10.05;4.60;;;6.20;99.90;;;;;;10387450;28;20049;-61
2022/03/15 20:48:11;;;;;;;10.43;5.32;;;6.00;99.90;;;;;;10384669;28;20076;-61
2022/03/15 20:53:16;;;;;;;12.20;5.35;;;5.90;99.90;;;;;;10369643;28;20131;-61
2022/03/15 20:58:26;;;;;;;14.38;5.63;;;5.80;99.90;;;;;;10382011;28;20060;-62
2022/03/15 21:03:32;;;;;;;14.32;6.38;;;5.70;99.90;;;;;;10374872;28;20050;-61
2022/03/15 21:08:37;;;;;;;13.20;6.90;;;5.60;99.90;;;;;;10377138;28;20049;-61
2022/03/15 21:13:43;;;;;;;13.98;5.82;;;5.50;99.90;;;;;;10381551;28;20077;-61
2022/03/15 21:18:46;;;;;;;16.50;6.60;;;5.40;99.90;;;;;;10372892;28;20041;-67
2022/03/15 21:23:50;;;;;;;17.75;6.70;;;5.30;99.90;;;;;;10378516;28;20045;-66
2022/03/15 21:28:52;;;;;;;12.77;6.57;;;5.20;99.90;;;;;;10383181;28;20393;-61
2022/03/15 21:33:54;;;;;;;16.65;6.32;;;5.10;99.90;;;;;;10372764;28;20132;-60
2022/03/15 21:38:57;;;;;;;20.33;7.40;;;5.00;99.90;;;;;;10377879;28;20053;-61
2022/03/15 21:43:59;;;;;;;18.30;8.90;;;4.90;99.90;;;;;;10385010;28;20045;-61
2022/03/15 21:49:01;;;;;;;17.38;7.88;;;4.80;99.90;;;;;;10379842;28;20408;-61
2022/03/15 21:54:05;;;;;;;15.23;7.05;;;4.70;99.90;;;;;;10387926;28;20164;-61
2022/03/15 21:59:09;;;;;;;15.63;7.43;;;4.60;99.90;;;;;;10390150;28;20108;-61
2022/03/15 22:04:11;;;;;;;17.08;6.72;;;4.50;99.90;;;;;;10389381;28;20053;-61
2022/03/15 22:09:12;;;;;;;13.32;6.07;;;4.40;99.90;;;;;;10384488;28;20488;-61
2022/03/15 22:14:14;;;;;;;14.45;6.72;;;4.30;99.90;;;;;;10381339;28;20049;-62
2022/03/15 22:19:16;;;;;;;18.88;7.75;;;4.20;99.90;;;;;;10387297;28;20060;-62
2022/03/15 22:24:24;;;;;;;13.00;5.63;;;4.10;99.90;;;;;;10379994;28;20671;-62
2022/03/15 22:29:26;;;;;;;13.05;6.10;;;4.00;99.90;;;;;;10388672;28;20045;-61
2022/03/15 23:17:01;;;;;;;13.07;4.55;;;3.60;99.90;;;;;;10378050;28;20068;-62
2022/03/15 23:27:28;;;;;;;12.18;5.35;;;3.50;99.90;;;;;;10387147;28;20103;-61
2022/03/15 23:32:30;;;;;;;11.30;5.38;;;3.40;99.90;;;;;;10382478;28;20046;-62
2022/03/15 23:37:32;;;;;;;11.00;4.93;;;3.30;99.90;;;;;;10382561;28;20049;-61
2022/03/15 23:42:34;;;;;;;10.57;5.38;;;3.30;99.90;;;;;;10387536;28;20937;-61
2022/03/15 23:47:37;;;;;;;13.23;5.72;;;3.20;99.90;;;;;;10382459;28;20041;-61
2022/03/15 23:52:40;;;;;;;10.35;4.93;;;3.10;99.90;;;;;;10376460;28;20045;-61
2022/03/15 23:57:42;;;;;;;10.73;4.53;;;3.10;99.90;;;;;;10373298;28;20049;-60
